createdAt,value
2018-06-28T00:00:57.569Z,8.50
2018-06-28T00:03:26.204Z,7.10
2018-06-28T00:05:54.813Z,9.80
2018-06-28T00:08:23.335Z,11.23
2018-06-28T00:10:51.899Z,12.67
2018-06-28T00:13:20.491Z,12.53
2018-06-28T00:15:49.024Z,11.43
2018-06-28T00:18:17.648Z,10.77
2018-06-28T00:20:46.179Z,9.83
2018-06-28T00:23:14.714Z,9.50
2018-06-28T00:25:43.244Z,9.03
2018-06-28T00:28:11.777Z,9.57
2018-06-28T00:30:40.403Z,9.30
2018-06-28T00:33:09.004Z,8.13
2018-06-28T00:35:37.627Z,8.03
2018-06-28T00:38:06.211Z,8.40
2018-06-28T00:40:34.817Z,9.37
2018-06-28T00:43:03.400Z,9.17
2018-06-28T00:45:32.024Z,8.17
2018-06-28T00:48:00.745Z,8.80
2018-06-28T00:50:29.317Z,8.33
2018-06-28T00:52:57.912Z,9.17
2018-06-28T00:55:26.600Z,10.63
2018-06-28T00:57:55.185Z,10.37
2018-06-28T01:00:23.764Z,12.97
2018-06-28T01:02:52.287Z,14.23
2018-06-28T01:05:20.827Z,14.07
2018-06-28T01:07:49.512Z,14.60
2018-06-28T01:10:18.197Z,14.73
2018-06-28T01:12:46.905Z,15.13
2018-06-28T01:15:15.519Z,14.23
2018-06-28T01:17:44.153Z,12.30
2018-06-28T01:20:12.838Z,11.93
2018-06-28T01:22:41.513Z,12.83
2018-06-28T01:25:10.104Z,11.20
2018-06-28T01:27:38.643Z,10.13
2018-06-28T01:30:07.822Z,7.70
2018-06-28T01:32:36.467Z,7.20
2018-06-28T01:35:05.459Z,7.60
2018-06-28T01:37:34.145Z,7.57
2018-06-28T01:40:02.730Z,10.80
2018-06-28T01:42:43.135Z,9.30
2018-06-28T01:45:11.720Z,11.07
2018-06-28T01:47:40.291Z,11.67
2018-06-28T01:50:08.892Z,12.60
2018-06-28T01:52:37.417Z,11.77
2018-06-28T01:55:06.206Z,12.60
2018-06-28T01:57:34.788Z,12.50
2018-06-28T02:00:03.494Z,12.33
2018-06-28T02:02:32.016Z,12.77
2018-06-28T02:05:00.598Z,13.60
2018-06-28T02:07:29.222Z,13.23
2018-06-28T02:09:57.867Z,11.33
2018-06-28T02:12:26.427Z,10.80
2018-06-28T02:14:55.077Z,10.17
2018-06-28T02:17:23.703Z,10.07
2018-06-28T02:19:52.283Z,10.17
2018-06-28T02:22:20.816Z,7.13
2018-06-28T02:24:49.479Z,6.00
2018-06-28T02:27:18.095Z,5.43
2018-06-28T02:29:46.675Z,4.83
2018-06-28T02:32:15.261Z,5.10
2018-06-28T02:34:43.840Z,4.50
2018-06-28T02:37:12.372Z,4.53
2018-06-28T02:39:40.987Z,4.23
2018-06-28T02:42:09.640Z,4.40
2018-06-28T02:44:38.231Z,3.90
2018-06-28T02:47:06.803Z,3.87
2018-06-28T02:49:35.451Z,4.13
2018-06-28T02:52:04.290Z,3.10
2018-06-28T02:54:32.809Z,4.23
2018-06-28T02:57:01.299Z,3.77
2018-06-28T02:59:29.819Z,3.13
2018-06-28T03:01:58.315Z,3.63
2018-06-28T03:04:26.884Z,3.50
2018-06-28T03:06:55.387Z,3.50
2018-06-28T03:09:24.006Z,3.60
2018-06-28T03:11:52.585Z,4.13
2018-06-28T03:14:21.119Z,4.03
2018-06-28T03:16:49.754Z,4.20
2018-06-28T03:19:18.250Z,3.40
2018-06-28T03:21:46.867Z,3.80
2018-06-28T03:24:15.411Z,3.90
2018-06-28T03:26:43.935Z,3.67
2018-06-28T03:29:12.563Z,3.43
2018-06-28T03:31:41.145Z,3.33
2018-06-28T03:34:09.780Z,3.00
2018-06-28T03:36:38.793Z,2.90
2018-06-28T03:39:10.858Z,3.23
2018-06-28T03:41:39.599Z,3.00
2018-06-28T03:44:08.571Z,3.37
2018-06-28T03:46:37.084Z,3.60
2018-06-28T03:49:05.699Z,4.13
2018-06-28T03:51:34.579Z,4.00
2018-06-28T03:54:03.508Z,3.80
2018-06-28T03:56:32.095Z,4.20
2018-06-28T03:59:00.677Z,3.77
2018-06-28T04:01:29.316Z,3.60
2018-06-28T04:03:58.152Z,3.60
2018-06-28T04:06:26.873Z,4.00
2018-06-28T04:08:55.491Z,3.10
2018-06-28T04:11:24.000Z,2.97
2018-06-28T04:13:52.639Z,3.90
2018-06-28T04:16:21.227Z,3.80
2018-06-28T04:18:49.852Z,4.00
2018-06-28T04:21:18.749Z,3.27
2018-06-28T04:23:47.274Z,3.40
2018-06-28T04:26:15.830Z,3.40
2018-06-28T04:28:44.389Z,3.87
2018-06-28T04:31:13.466Z,4.77
2018-06-28T04:33:42.065Z,4.60
2018-06-28T04:36:10.647Z,4.37
2018-06-28T04:38:39.280Z,4.40
2018-06-28T04:41:07.788Z,3.97
2018-06-28T04:43:36.355Z,4.00
2018-06-28T04:46:05.183Z,4.07
2018-06-28T04:48:33.766Z,3.63
2018-06-28T04:51:02.344Z,3.77
2018-06-28T04:53:30.933Z,3.40
2018-06-28T04:55:59.571Z,3.83
2018-06-28T04:58:28.156Z,3.57
2018-06-28T05:00:56.787Z,3.50
2018-06-28T05:03:25.275Z,3.17
2018-06-28T05:05:53.848Z,3.10
2018-06-28T05:08:22.534Z,3.00
2018-06-28T05:10:51.035Z,2.90
2018-06-28T05:13:19.722Z,2.70
2018-06-28T05:15:48.376Z,2.60
2018-06-28T05:18:16.887Z,2.90
2018-06-28T05:20:45.382Z,2.50
2018-06-28T05:23:13.973Z,2.20
2018-06-28T05:25:42.512Z,2.30
2018-06-28T05:28:11.051Z,2.47
2018-06-28T05:30:39.676Z,1.83
2018-06-28T05:33:08.258Z,2.00
2018-06-28T05:35:36.803Z,1.73
2018-06-28T05:38:05.628Z,2.00
2018-06-28T05:40:34.173Z,1.83
2018-06-28T05:43:02.794Z,1.57
2018-06-28T05:45:31.378Z,1.67
2018-06-28T05:47:59.960Z,1.93
2018-06-28T05:50:28.646Z,1.90
2018-06-28T05:52:57.229Z,1.42
2018-06-28T05:55:25.763Z,2.05
2018-06-28T05:57:54.291Z,1.53
2018-06-28T06:00:22.856Z,1.60
2018-06-28T06:02:51.526Z,1.98
2018-06-28T06:05:20.019Z,1.67
2018-06-28T06:07:48.595Z,1.50
2018-06-28T06:10:17.285Z,1.70
2018-06-28T06:12:45.752Z,1.75
2018-06-28T06:15:14.379Z,1.70
2018-06-28T06:17:42.909Z,1.80
2018-06-28T06:20:11.495Z,1.82
2018-06-28T06:22:40.076Z,1.80
2018-06-28T06:25:08.704Z,1.92
2018-06-28T06:27:37.332Z,1.62
2018-06-28T06:30:06.763Z,1.92
2018-06-28T06:32:35.355Z,1.77
2018-06-28T06:35:04.066Z,1.77
2018-06-28T06:37:33.021Z,1.98
2018-06-28T06:40:02.031Z,1.82
2018-06-28T06:42:30.629Z,1.80
2018-06-28T06:44:59.210Z,1.90
2018-06-28T06:47:27.793Z,1.70
2018-06-28T06:49:56.327Z,2.10
2018-06-28T06:52:24.902Z,1.70
2018-06-28T06:54:53.458Z,1.60
2018-06-28T06:57:22.227Z,1.60
2018-06-28T06:59:50.912Z,1.95
2018-06-28T07:02:19.519Z,1.77
2018-06-28T07:04:48.098Z,1.72
2018-06-28T07:07:16.624Z,1.42
2018-06-28T07:09:45.250Z,1.82
2018-06-28T07:12:13.929Z,1.80
2018-06-28T07:14:42.460Z,1.77
2018-06-28T07:17:11.607Z,1.87
2018-06-28T07:19:40.394Z,1.67
2018-06-28T07:22:08.907Z,1.42
2018-06-28T07:24:37.459Z,1.70
2018-06-28T07:27:06.041Z,1.45
2018-06-28T07:29:34.615Z,1.70
2018-06-28T07:32:03.107Z,1.75
2018-06-28T07:34:31.596Z,1.90
2018-06-28T07:37:00.195Z,1.87
2018-06-28T07:39:28.853Z,1.90
2018-06-28T07:41:57.385Z,2.10
2018-06-28T07:44:25.888Z,1.77
2018-06-28T07:46:54.561Z,1.60
2018-06-28T07:49:23.123Z,1.98
2018-06-28T07:51:51.874Z,2.15
2018-06-28T07:54:20.502Z,1.80
2018-06-28T07:56:49.038Z,1.95
2018-06-28T07:59:17.539Z,2.00
2018-06-28T08:01:46.080Z,2.33
2018-06-28T08:04:14.682Z,2.00
2018-06-28T08:06:43.265Z,1.90
2018-06-28T08:09:11.755Z,1.65
2018-06-28T08:11:40.431Z,1.62
2018-06-28T08:14:09.066Z,1.72
2018-06-28T08:16:37.567Z,1.92
2018-06-28T08:19:06.183Z,2.10
2018-06-28T08:21:34.921Z,1.95
2018-06-28T08:24:03.447Z,1.65
2018-06-28T08:26:31.947Z,1.85
2018-06-28T08:29:00.512Z,1.85
2018-06-28T08:31:29.094Z,1.82
2018-06-28T08:33:57.595Z,1.92
2018-06-28T08:36:26.163Z,1.60
2018-06-28T08:38:54.676Z,1.90
2018-06-28T08:41:23.488Z,1.90
2018-06-28T08:43:52.128Z,1.70
2018-06-28T08:46:20.631Z,1.40
2018-06-28T08:48:49.255Z,1.57
2018-06-28T08:51:17.962Z,1.82
2018-06-28T08:53:46.517Z,1.70
2018-06-28T08:56:15.128Z,1.80
2018-06-28T08:58:43.631Z,1.52
2018-06-28T09:01:12.235Z,1.37
2018-06-28T09:03:40.733Z,1.57
2018-06-28T09:06:09.462Z,1.35
2018-06-28T09:08:38.088Z,1.37
2018-06-28T09:11:06.932Z,1.87
2018-06-28T09:13:35.520Z,1.10
2018-06-28T09:16:04.098Z,1.60
2018-06-28T09:18:32.663Z,1.20
2018-06-28T09:21:01.263Z,1.30
2018-06-28T09:23:29.949Z,1.50
2018-06-28T09:25:58.555Z,1.57
2018-06-28T09:28:27.209Z,1.07
2018-06-28T09:30:55.907Z,1.40
2018-06-28T09:33:24.615Z,1.60
2018-06-28T09:35:53.125Z,1.40
2018-06-28T09:38:21.591Z,1.40
2018-06-28T09:40:50.183Z,1.57
2018-06-28T09:43:18.819Z,1.05
2018-06-28T09:45:47.399Z,1.32
2018-06-28T09:48:15.982Z,1.40
2018-06-28T09:50:44.568Z,1.15
2018-06-28T09:53:13.148Z,1.57
2018-06-28T09:55:41.715Z,1.50
2018-06-28T09:58:10.312Z,1.32
2018-06-28T10:00:45.703Z,1.17
2018-06-28T10:03:15.439Z,1.10
2018-06-28T10:05:44.095Z,1.00
2018-06-28T10:08:13.149Z,1.15
2018-06-28T10:10:41.728Z,1.30
2018-06-28T10:13:10.218Z,1.20
2018-06-28T10:15:38.778Z,1.00
2018-06-28T10:18:07.440Z,1.05
2018-06-28T10:20:36.049Z,1.15
2018-06-28T10:23:04.643Z,1.00
2018-06-28T10:25:33.171Z,1.10
2018-06-28T10:28:01.653Z,1.00
2018-06-28T10:30:30.227Z,1.20
2018-06-28T10:32:58.711Z,0.98
2018-06-28T10:35:27.249Z,0.90
2018-06-28T10:37:55.776Z,0.98
2018-06-28T10:40:24.327Z,0.90
2018-06-28T10:42:52.951Z,0.90
2018-06-28T10:45:21.474Z,1.10
2018-06-28T10:47:50.062Z,0.90
2018-06-28T10:50:18.695Z,1.07
2018-06-28T10:52:47.201Z,0.82
2018-06-28T10:55:15.715Z,0.90
2018-06-28T10:57:44.395Z,1.10
2018-06-28T11:00:12.934Z,1.12
2018-06-28T11:02:41.508Z,0.85
2018-06-28T11:05:10.142Z,0.95
2018-06-28T11:07:38.658Z,0.93
2018-06-28T11:10:07.595Z,1.25
2018-06-28T11:12:36.198Z,1.00
2018-06-28T11:15:05.451Z,0.90
2018-06-28T11:17:33.942Z,0.82
2018-06-28T11:20:02.512Z,1.00
2018-06-28T11:22:31.041Z,1.05
2018-06-28T11:24:59.570Z,1.00
2018-06-28T11:27:28.215Z,1.00
2018-06-28T11:29:56.795Z,1.10
2018-06-28T11:32:25.442Z,1.20
2018-06-28T11:34:54.058Z,1.10
2018-06-28T11:37:23.154Z,1.12
2018-06-28T11:39:51.737Z,0.85
2018-06-28T11:42:20.238Z,0.88
2018-06-28T11:44:48.746Z,1.00
2018-06-28T11:47:17.282Z,0.80
2018-06-28T11:49:45.778Z,1.00
2018-06-28T11:52:14.351Z,1.10
2018-06-28T11:54:42.926Z,1.10
2018-06-28T11:57:11.447Z,1.07
2018-06-28T11:59:39.991Z,0.98
2018-06-28T12:02:08.625Z,0.80
2018-06-28T12:04:37.256Z,0.80
2018-06-28T12:07:05.774Z,1.07
2018-06-28T12:09:34.272Z,1.15
2018-06-28T12:12:02.771Z,0.90
2018-06-28T12:14:31.281Z,1.07
2018-06-28T12:16:59.817Z,0.85
2018-06-28T12:19:28.331Z,0.90
2018-06-28T12:21:56.839Z,0.90
2018-06-28T12:24:25.356Z,1.10
2018-06-28T12:26:53.927Z,1.00
2018-06-28T12:29:22.577Z,1.05
2018-06-28T12:31:51.115Z,0.90
2018-06-28T12:34:19.743Z,1.02
2018-06-28T12:36:48.247Z,0.70
2018-06-28T12:39:16.883Z,0.80
2018-06-28T12:41:45.327Z,0.78
2018-06-28T12:44:13.932Z,1.00
2018-06-28T12:47:57.102Z,0.88
2018-06-28T12:50:25.714Z,0.88
2018-06-28T12:53:04.455Z,0.90
2018-06-28T12:56:42.947Z,0.80
2018-06-28T12:59:12.841Z,0.85
2018-06-28T13:01:41.363Z,1.00
2018-06-28T13:04:09.987Z,0.98
2018-06-28T13:06:38.532Z,0.70
2018-06-28T13:09:12.498Z,0.85
2018-06-28T13:11:40.987Z,0.60
2018-06-28T13:14:09.892Z,0.90
2018-06-28T13:16:38.548Z,0.90
2018-06-28T13:19:07.056Z,1.00
2018-06-28T13:21:35.639Z,1.10
2018-06-28T13:24:04.387Z,0.90
2018-06-28T13:26:32.946Z,1.02
2018-06-28T13:29:01.531Z,1.00
2018-06-28T13:31:30.044Z,1.12
2018-06-28T13:33:58.634Z,0.95
2018-06-28T13:36:27.217Z,0.93
2018-06-28T13:38:55.904Z,1.12
2018-06-28T13:41:24.554Z,1.00
2018-06-28T13:43:53.066Z,1.00
2018-06-28T13:46:21.666Z,1.15
2018-06-28T13:48:50.232Z,1.20
2018-06-28T13:51:19.020Z,0.90
2018-06-28T13:53:47.543Z,1.20
2018-06-28T13:56:16.089Z,0.95
2018-06-28T13:58:45.323Z,1.10
2018-06-28T14:01:14.069Z,0.82
2018-06-28T14:03:42.624Z,0.90
2018-06-28T14:06:11.238Z,1.02
2018-06-28T14:08:39.751Z,1.32
2018-06-28T14:11:08.400Z,1.27
2018-06-28T14:13:36.988Z,1.10
2018-06-28T14:16:06.579Z,0.90
2018-06-28T14:18:35.268Z,1.00
2018-06-28T14:21:03.888Z,1.10
2018-06-28T14:23:33.499Z,1.10
2018-06-28T14:26:01.987Z,1.27
2018-06-28T14:28:30.528Z,0.98
2018-06-28T14:30:59.062Z,0.90
2018-06-28T14:33:27.594Z,0.80
2018-06-28T14:35:56.130Z,1.02
2018-06-28T14:38:24.637Z,1.12
2018-06-28T14:40:53.258Z,0.95
2018-06-28T14:43:21.763Z,1.30
2018-06-28T14:45:50.403Z,1.10
2018-06-28T14:48:19.397Z,0.88
2018-06-28T14:50:47.902Z,1.10
2018-06-28T14:53:16.534Z,1.00
2018-06-28T14:55:44.988Z,0.90
2018-06-28T14:58:13.626Z,1.10
2018-06-28T15:00:42.192Z,1.10
2018-06-28T15:03:10.671Z,0.80
2018-06-28T15:05:39.272Z,1.00
2018-06-28T15:08:07.854Z,0.90
2018-06-28T15:10:36.403Z,1.05
2018-06-28T15:13:05.201Z,1.20
2018-06-28T15:15:34.018Z,1.00
2018-06-28T15:18:02.759Z,1.00
2018-06-28T15:20:31.605Z,1.12
2018-06-28T15:23:00.362Z,1.12
2018-06-28T15:25:29.111Z,0.95
2018-06-28T15:27:58.021Z,1.02
2018-06-28T15:30:26.653Z,1.02
2018-06-28T15:32:55.494Z,0.90
2018-06-28T15:35:24.220Z,1.10
2018-06-28T15:37:53.611Z,1.00
2018-06-28T15:40:23.127Z,1.30
2018-06-28T15:42:52.220Z,0.80
2018-06-28T15:45:20.968Z,1.22
2018-06-28T15:47:50.214Z,0.90
2018-06-28T15:50:18.990Z,1.10
2018-06-28T15:52:47.934Z,1.10
2018-06-28T15:55:16.601Z,1.12
2018-06-28T15:57:45.294Z,1.12
2018-06-28T16:00:14.004Z,1.10
2018-06-28T16:02:42.713Z,0.90
2018-06-28T16:05:11.350Z,1.17
2018-06-28T16:07:40.046Z,1.05
2018-06-28T16:10:08.778Z,1.00
2018-06-28T16:12:37.490Z,1.05
2018-06-28T16:15:06.462Z,1.20
2018-06-28T16:17:35.243Z,0.95
2018-06-28T16:20:04.076Z,1.00
2018-06-28T16:22:32.759Z,1.27
2018-06-28T16:25:01.522Z,1.05
2018-06-28T16:27:30.342Z,0.93
2018-06-28T16:29:59.156Z,1.17
2018-06-28T16:32:27.972Z,1.20
2018-06-28T16:34:56.756Z,1.30
2018-06-28T16:37:25.578Z,1.15
2018-06-28T16:39:54.380Z,1.20
2018-06-28T16:42:23.229Z,1.27
2018-06-28T16:44:52.042Z,1.12
2018-06-28T16:47:20.890Z,1.20
2018-06-28T16:49:49.653Z,1.20
2018-06-28T16:52:18.518Z,1.05
2018-06-28T16:54:47.268Z,1.10
2018-06-28T16:57:16.166Z,1.15
2018-06-28T16:59:44.841Z,0.98
2018-06-28T17:02:13.551Z,1.40
2018-06-28T17:04:42.300Z,1.27
2018-06-28T17:07:11.035Z,1.15
2018-06-28T17:09:39.738Z,0.90
2018-06-28T17:12:08.475Z,0.90
2018-06-28T17:14:37.260Z,0.93
2018-06-28T17:17:06.003Z,1.00
2018-06-28T17:19:34.750Z,1.00
2018-06-28T17:22:03.624Z,1.02
2018-06-28T17:24:32.361Z,1.00
2018-06-28T17:27:01.182Z,1.10
2018-06-28T17:29:30.040Z,0.82
2018-06-28T17:31:58.880Z,0.80
2018-06-28T17:34:27.621Z,0.82
2018-06-28T17:36:56.317Z,0.90
2018-06-28T17:39:25.038Z,0.80
2018-06-28T17:41:53.838Z,0.93
2018-06-28T17:44:22.520Z,0.85
2018-06-28T17:46:51.229Z,0.85
2018-06-28T17:49:20.080Z,0.68
2018-06-28T17:51:48.806Z,1.10
2018-06-28T17:54:17.598Z,0.78
2018-06-28T17:56:46.404Z,0.90
2018-06-28T17:59:15.269Z,0.70
2018-06-28T18:01:44.210Z,0.80
2018-06-28T18:04:12.996Z,0.93
2018-06-28T18:06:41.747Z,0.80
2018-06-28T18:09:10.815Z,0.80
2018-06-28T18:11:40.304Z,0.80
2018-06-28T18:14:09.381Z,0.80
2018-06-28T18:16:38.486Z,0.90
2018-06-28T18:19:07.412Z,1.10
2018-06-28T18:21:36.190Z,0.88
2018-06-28T18:24:05.013Z,0.80
2018-06-28T18:26:33.807Z,0.80
2018-06-28T18:29:02.600Z,0.90
2018-06-28T18:31:31.424Z,0.80
2018-06-28T18:34:00.293Z,0.70
2018-06-28T18:36:29.095Z,0.62
2018-06-28T18:38:58.005Z,0.68
2018-06-28T18:41:26.876Z,0.90
2018-06-28T18:43:55.662Z,0.90
2018-06-28T18:46:24.443Z,0.78
2018-06-28T18:48:53.447Z,0.70
2018-06-28T18:51:22.388Z,0.90
2018-06-28T18:53:51.279Z,1.02
2018-06-28T18:56:20.231Z,0.95
2018-06-28T18:58:48.960Z,0.68
2018-06-28T19:01:18.744Z,0.70
2018-06-28T19:03:47.469Z,0.75
2018-06-28T19:06:17.105Z,0.98
2018-06-28T19:08:45.793Z,0.95
2018-06-28T19:11:14.534Z,0.70
2018-06-28T19:13:48.315Z,0.70
2018-06-28T19:16:22.356Z,0.90
2018-06-28T19:18:50.919Z,0.95
2018-06-28T19:21:24.737Z,0.85
2018-06-28T19:23:53.920Z,0.85
2018-06-28T19:26:22.521Z,0.80
2018-06-28T19:28:51.027Z,0.80
2018-06-28T19:31:24.702Z,0.62
2018-06-28T19:33:53.283Z,0.62
2018-06-28T19:36:21.775Z,0.88
2018-06-28T19:38:55.627Z,0.88
2018-06-28T19:41:29.414Z,0.90
2018-06-28T19:43:57.961Z,0.80
2018-06-28T19:46:26.588Z,1.00
2018-06-28T19:48:55.094Z,0.90
2018-06-28T19:51:28.923Z,1.00
2018-06-28T19:53:57.511Z,0.70
2018-06-28T19:56:26.071Z,1.00
2018-06-28T19:58:54.835Z,0.85
2018-06-28T20:01:28.735Z,0.87
2018-06-28T20:04:02.659Z,1.00
2018-06-28T20:06:31.292Z,0.72
2018-06-28T20:08:59.912Z,1.03
2018-06-28T20:11:28.491Z,0.80
2018-06-28T20:14:02.301Z,0.80
2018-06-28T20:16:36.104Z,0.97
2018-06-28T20:19:10.014Z,1.00
2018-06-28T20:21:38.589Z,1.10
2018-06-28T20:24:07.543Z,0.87
2018-06-28T20:26:41.381Z,1.00
2018-06-28T20:29:15.301Z,1.00
2018-06-28T20:31:49.159Z,0.80
2018-06-28T20:34:17.786Z,1.30
2018-06-28T20:36:46.323Z,0.90
2018-06-28T20:39:14.919Z,1.00
2018-06-28T20:41:43.743Z,1.00
2018-06-28T20:44:12.427Z,0.77
2018-06-28T20:46:40.959Z,1.03
2018-06-28T20:49:09.497Z,1.17
2018-06-28T20:51:38.119Z,1.33
2018-06-28T20:54:06.930Z,1.23
2018-06-28T20:56:35.483Z,1.80
2018-06-28T20:59:04.138Z,1.53
2018-06-28T21:01:32.791Z,1.43
2018-06-28T21:04:01.314Z,1.40
2018-06-28T21:06:30.083Z,1.30
2018-06-28T21:08:58.603Z,1.73
2018-06-28T21:11:27.191Z,1.90
2018-06-28T21:13:55.795Z,1.60
2018-06-28T21:16:24.308Z,1.67
2018-06-28T21:18:52.877Z,1.33
2018-06-28T21:21:21.597Z,1.77
2018-06-28T21:23:50.275Z,1.57
2018-06-28T21:26:18.755Z,1.63
2018-06-28T21:28:47.317Z,1.60
2018-06-28T21:31:15.863Z,1.90
2018-06-28T21:33:44.498Z,2.33
2018-06-28T21:36:13.167Z,1.70
2018-06-28T21:38:41.691Z,1.60
2018-06-28T21:41:10.211Z,2.13
2018-06-28T21:43:38.831Z,1.60
2018-06-28T21:46:07.414Z,1.83
2018-06-28T21:48:35.996Z,2.07
2018-06-28T21:51:04.542Z,1.80
2018-06-28T21:53:33.094Z,2.20
2018-06-28T21:56:01.607Z,1.80
2018-06-28T21:58:30.186Z,2.20
2018-06-28T22:00:58.811Z,2.07
2018-06-28T22:03:27.392Z,1.70
2018-06-28T22:05:56.074Z,2.23
2018-06-28T22:08:24.580Z,2.20
2018-06-28T22:10:53.111Z,2.53
2018-06-28T22:13:21.677Z,2.20
2018-06-28T22:15:50.406Z,2.17
2018-06-28T22:18:18.935Z,2.03
2018-06-28T22:20:47.572Z,2.57
2018-06-28T22:23:16.147Z,2.30
2018-06-28T22:25:44.665Z,2.23
2018-06-28T22:28:13.330Z,2.00
2018-06-28T22:30:42.006Z,1.90
2018-06-28T22:33:10.626Z,1.90
2018-06-28T22:35:39.280Z,2.50
2018-06-28T22:38:08.027Z,2.60
2018-06-28T22:40:36.548Z,2.07
2018-06-28T22:43:05.125Z,2.10
2018-06-28T22:45:33.635Z,2.30
2018-06-28T22:48:02.203Z,2.90
2018-06-28T22:50:31.600Z,2.20
2018-06-28T22:53:00.131Z,4.53
2018-06-28T22:55:28.626Z,3.00
2018-06-28T22:57:57.142Z,3.13
2018-06-28T23:00:29.598Z,3.10
2018-06-28T23:02:58.138Z,2.53
2018-06-28T23:05:26.760Z,2.40
2018-06-28T23:07:55.335Z,2.40
2018-06-28T23:10:24.107Z,3.00
2018-06-28T23:12:52.627Z,2.47
2018-06-28T23:15:21.128Z,2.60
2018-06-28T23:17:49.686Z,2.27
2018-06-28T23:20:18.269Z,2.40
2018-06-28T23:22:50.025Z,2.07
2018-06-28T23:25:19.017Z,2.23
2018-06-28T23:27:48.275Z,2.50
2018-06-28T23:30:17.107Z,3.00
2018-06-28T23:32:45.631Z,2.20
2018-06-28T23:35:14.235Z,2.27
2018-06-28T23:37:42.747Z,2.37
2018-06-28T23:40:11.336Z,2.30
2018-06-28T23:42:40.430Z,2.13
2018-06-28T23:45:09.798Z,2.00
2018-06-28T23:47:38.447Z,2.10
2018-06-28T23:50:08.210Z,2.30
2018-06-28T23:52:36.743Z,1.57
2018-06-28T23:55:06.165Z,2.13
2018-06-28T23:57:34.796Z,1.63
